Airfield :
LOGIN :

Register | Disclaimer

   EN    FR    IT 

 










Legend :    VFR   Marginal VFR   IFR   Intensive IFR   Very Intensive IFR
Visi :
Ceiling :
>= 8 km
>= 3000ft
5 to 8 km
1000 to 3000 ft
1500m to 5 km
500 to 1000 ft
800 to 1500m
200 to 500 ft
< 800m
< 200 ft
Symbols :   Thunderstorms  Fog  Heavy snow  Heavy precipitations  Wind > 20 kt
SIGMETs :     Misc.  Thunderstorms  Icing  Turbulence  Mountain Waves  Volcanic Ashes






- Airport Elevation : 287 ft
- IATA code : IAR


UUDL - Tunoshna

CURRENT METAR :
  • 242000Z 00000MPS CAVOK 12/12 Q1019 R23/010060 NOSIG RMK QFE756

EXPIRED METARs :
  • 241930Z 17002MPS CAVOK 14/12 Q1019 R23/010060 NOSIG RMK QFE756
  • 241900Z 17002MPS CAVOK 14/13 Q1019 R23/010060 NOSIG RMK QFE756
  • 241830Z 17002MPS CAVOK 15/13 Q1019 R23/010060 NOSIG RMK QFE756
  • 241800Z 18002MPS CAVOK 15/13 Q1019 R23/010060 NOSIG RMK QFE756
  • 241730Z 17002MPS CAVOK 16/13 Q1019 R23/010060 NOSIG RMK QFE756

TAF TAF UUDL
Valid from the 24 at 18:00 until the 25 at 18:00 UTC


241700Z 2418/2518 17003MPS 9999 SCT040 TX23/2512Z TN07/2503Z
PROB40
TEMPO 2421/2506 0400 FG VV002



MET'MAP, your aeronautical weather chart ! - Copyright ORBIFLY December 2007 - Disclaimer

ORBIFLY MET'MAP TEAM :

Programming & Development : Alexandra Zaïnal
Concept & original design : Baudouin d'Aumeries
Assistance for programming : Marc-Olivier Méhu
Technical & hardware support : Manuel Goepfert

Contact : metmap@orbifly.com




SOURCES & CREDITS :

   NOAA